Terminal Aerodrome Forecast
Issued by NWS Boston, MA

Home | Current Version | Previous Version | Text Only | Print | Product List | Glossary On
Versions: 1 2 3 4 5 6 7 8 9 10 11 12 13 14 15 16 17 18 19
000
FTUS41 KBOX 191130
TAFORH
TAF
KORH 191130Z 1912/2012 24006KT P6SM SCT200
     FM191400 28013KT P6SM SCT200
     FM192000 28011G23KT P6SM SCT200
     FM200900 31009KT P6SM BKN025
     FM201100 32008KT P6SM SCT025=

USA.gov is the U.S. government's official web portal to all federal, state and local government web resources and services.